createdAt,value
2022-12-19T00:00:36.330Z,33.20
2022-12-19T00:03:05.969Z,30.80
2022-12-19T00:05:39.491Z,38.10
2022-12-19T00:08:16.939Z,29.05
2022-12-19T00:10:48.468Z,35.97
2022-12-19T00:13:23.289Z,34.40
2022-12-19T00:15:52.898Z,35.30
2022-12-19T00:18:22.981Z,35.00
2022-12-19T00:20:59.907Z,36.20
2022-12-19T00:23:30.673Z,33.90
2022-12-19T00:26:10.507Z,39.65
2022-12-19T00:28:43.064Z,35.03
2022-12-19T00:31:12.674Z,35.10
2022-12-19T00:33:43.433Z,35.33
2022-12-19T00:36:15.122Z,30.90
2022-12-19T00:38:47.515Z,37.78
2022-12-19T00:41:18.459Z,28.48
2022-12-19T00:43:51.106Z,31.92
2022-12-19T00:46:20.765Z,38.35
2022-12-19T00:48:50.355Z,39.97
2022-12-19T00:51:25.772Z,32.80
2022-12-19T00:53:56.640Z,32.38
2022-12-19T00:56:28.179Z,29.52
2022-12-19T00:59:00.609Z,36.92
2022-12-19T01:01:33.352Z,34.22
2022-12-19T01:04:27.746Z,36.78
2022-12-19T01:06:54.681Z,32.22
2022-12-19T01:09:30.653Z,32.30
2022-12-19T01:12:12.693Z,32.08
2022-12-19T01:14:45.139Z,34.15
2022-12-19T01:17:14.783Z,29.40
2022-12-19T01:19:44.956Z,29.92
2022-12-19T01:22:14.998Z,30.45
2022-12-19T01:24:44.662Z,42.85
2022-12-19T01:27:14.443Z,29.95
2022-12-19T01:29:52.335Z,35.63
2022-12-19T01:32:23.496Z,34.40
2022-12-19T01:34:52.952Z,32.25
2022-12-19T01:37:22.700Z,27.80
2022-12-19T01:39:54.613Z,30.58
2022-12-19T01:42:25.811Z,31.98
2022-12-19T01:45:24.241Z,33.15
2022-12-19T01:47:58.244Z,35.65
2022-12-19T01:50:32.528Z,33.42
2022-12-19T01:53:02.195Z,30.65
2022-12-19T01:55:31.930Z,33.67
2022-12-19T01:58:02.055Z,33.53
2022-12-19T02:00:35.523Z,28.05
2022-12-19T02:03:09.387Z,32.40
2022-12-19T02:05:42.900Z,31.10
2022-12-19T02:08:12.675Z,30.48
2022-12-19T02:10:42.075Z,31.98
2022-12-19T02:13:11.724Z,28.77
2022-12-19T02:15:54.343Z,29.92
2022-12-19T02:18:33.659Z,30.58
2022-12-19T02:21:17.251Z,30.92
2022-12-19T02:24:16.321Z,34.28
2022-12-19T02:26:58.325Z,29.60
2022-12-19T02:29:52.939Z,32.10
2022-12-19T02:32:28.981Z,29.35
2022-12-19T02:35:02.110Z,31.25
2022-12-19T02:37:33.250Z,33.35
2022-12-19T02:40:05.735Z,35.45
2022-12-19T02:42:39.058Z,29.50
2022-12-19T02:45:10.513Z,31.27
2022-12-19T02:47:42.734Z,33.25
2022-12-19T02:50:12.498Z,50.05
2022-12-19T02:52:50.204Z,34.60
2022-12-19T02:55:25.427Z,34.67
2022-12-19T02:58:12.309Z,45.08
2022-12-19T03:00:47.830Z,35.88
2022-12-19T03:03:24.329Z,30.23
2022-12-19T03:05:59.910Z,30.05
2022-12-19T03:08:32.685Z,29.75
2022-12-19T03:11:04.280Z,27.60
2022-12-19T03:13:36.798Z,29.27
2022-12-19T03:16:07.886Z,29.58
2022-12-19T03:18:40.308Z,26.27
2022-12-19T03:21:14.690Z,30.88
2022-12-19T03:23:44.830Z,38.05
2022-12-19T03:26:21.047Z,26.92
2022-12-19T03:28:53.276Z,34.28
2022-12-19T03:31:25.520Z,32.42
2022-12-19T03:33:59.815Z,33.42
2022-12-19T03:36:31.898Z,32.88
2022-12-19T03:39:03.087Z,32.13
2022-12-19T03:41:46.121Z,29.58
2022-12-19T03:44:18.512Z,26.95
2022-12-19T03:46:52.534Z,26.38
2022-12-19T03:49:24.563Z,31.63
2022-12-19T03:51:59.368Z,32.90
2022-12-19T03:54:31.092Z,28.25
2022-12-19T03:57:04.015Z,28.33
2022-12-19T03:59:37.372Z,29.58
2022-12-19T04:02:07.467Z,33.22
2022-12-19T04:04:46.634Z,30.42
2022-12-19T04:07:17.030Z,31.05
2022-12-19T04:09:47.681Z,32.70
2022-12-19T04:12:19.000Z,34.45
2022-12-19T04:14:48.609Z,27.52
2022-12-19T04:17:23.354Z,31.15
2022-12-19T04:19:59.348Z,32.08
2022-12-19T04:22:33.072Z,32.65
2022-12-19T04:25:05.906Z,26.40
2022-12-19T04:27:37.141Z,31.67
2022-12-19T04:30:10.970Z,34.67
2022-12-19T04:32:40.650Z,30.17
2022-12-19T04:35:12.853Z,28.70
2022-12-19T04:37:42.520Z,33.78
2022-12-19T04:40:13.651Z,29.00
2022-12-19T04:42:43.080Z,26.52
2022-12-19T04:45:13.485Z,25.83
2022-12-19T04:47:42.886Z,33.17
2022-12-19T04:50:15.273Z,33.72
2022-12-19T04:52:44.765Z,27.70
2022-12-19T04:55:14.212Z,30.50
2022-12-19T04:57:43.601Z,32.38
2022-12-19T05:00:14.369Z,31.15
2022-12-19T05:02:43.970Z,35.50
2022-12-19T05:05:16.628Z,25.00
2022-12-19T05:07:47.046Z,31.38
2022-12-19T05:10:17.309Z,33.25
2022-12-19T05:12:47.009Z,30.15
2022-12-19T05:15:16.865Z,27.50
2022-12-19T05:17:46.252Z,28.88
2022-12-19T05:20:18.347Z,29.67
2022-12-19T05:22:47.767Z,33.65
2022-12-19T05:25:17.310Z,29.98
2022-12-19T05:27:46.800Z,33.80
2022-12-19T05:30:16.655Z,37.08
2022-12-19T05:32:46.104Z,33.17
2022-12-19T05:35:18.179Z,34.92
2022-12-19T05:37:47.544Z,30.23
2022-12-19T05:40:17.044Z,31.55
2022-12-19T05:42:46.642Z,29.98
2022-12-19T05:45:16.156Z,38.22
2022-12-19T05:47:47.337Z,32.00
2022-12-19T05:50:20.145Z,34.47
2022-12-19T05:52:49.542Z,28.92
2022-12-19T05:55:19.338Z,29.73
2022-12-19T05:57:48.751Z,30.40
2022-12-19T06:00:19.229Z,33.20
2022-12-19T06:02:48.692Z,28.77
2022-12-19T06:05:20.877Z,30.73
2022-12-19T06:07:50.282Z,40.05
2022-12-19T06:10:19.941Z,30.30
2022-12-19T06:12:49.380Z,31.48
2022-12-19T06:15:18.941Z,36.13
2022-12-19T06:17:48.318Z,28.13
2022-12-19T06:20:20.266Z,28.42
2022-12-19T06:22:49.712Z,28.60
2022-12-19T06:25:19.094Z,30.67
2022-12-19T06:27:48.541Z,31.80
2022-12-19T06:30:18.178Z,30.45
2022-12-19T06:32:47.571Z,32.88
2022-12-19T06:35:19.854Z,80.40
2022-12-19T06:37:52.070Z,27.90
2022-12-19T06:40:35.641Z,35.55
2022-12-19T06:43:05.167Z,27.70
2022-12-19T06:45:34.634Z,30.48
2022-12-19T06:48:04.086Z,30.20
2022-12-19T06:50:36.091Z,29.13
2022-12-19T06:53:08.369Z,28.02
2022-12-19T06:55:39.270Z,32.95
2022-12-19T06:58:08.662Z,29.63
2022-12-19T07:00:40.850Z,28.73
2022-12-19T07:03:13.630Z,31.60
2022-12-19T07:05:45.598Z,29.73
2022-12-19T07:08:15.012Z,29.85
2022-12-19T07:10:44.492Z,30.38
2022-12-19T07:13:14.224Z,32.35
2022-12-19T07:15:43.611Z,30.50
2022-12-19T07:18:13.554Z,27.88
2022-12-19T07:20:45.960Z,28.02
2022-12-19T07:23:18.244Z,31.65
2022-12-19T07:25:47.658Z,27.42
2022-12-19T07:28:17.762Z,28.90
2022-12-19T07:30:47.325Z,37.53
2022-12-19T07:33:21.227Z,29.63
2022-12-19T07:35:53.833Z,36.03
2022-12-19T07:38:23.637Z,46.38
2022-12-19T07:40:53.046Z,34.60
2022-12-19T07:43:22.434Z,37.40
2022-12-19T07:45:56.668Z,27.50
2022-12-19T07:48:26.678Z,30.17
2022-12-19T07:50:58.892Z,30.55
2022-12-19T07:53:28.349Z,42.97
2022-12-19T07:55:57.812Z,28.77
2022-12-19T07:58:27.230Z,32.28
2022-12-19T08:00:57.889Z,30.60
2022-12-19T08:03:28.333Z,33.60
2022-12-19T08:06:06.150Z,35.15
2022-12-19T08:08:37.746Z,27.95
2022-12-19T08:11:16.943Z,32.35
2022-12-19T08:13:47.210Z,35.30
2022-12-19T08:16:17.660Z,35.08
2022-12-19T08:18:47.890Z,30.70
2022-12-19T08:21:19.898Z,31.10
2022-12-19T08:23:49.495Z,41.28
2022-12-19T08:26:24.987Z,39.05
2022-12-19T08:28:57.875Z,33.80
2022-12-19T08:31:28.957Z,30.15
2022-12-19T08:33:59.609Z,37.22
2022-12-19T08:36:31.789Z,38.47
2022-12-19T08:39:01.329Z,42.42
2022-12-19T08:41:30.734Z,32.03
2022-12-19T08:44:00.972Z,46.60
2022-12-19T08:46:30.918Z,39.67
2022-12-19T08:49:01.859Z,40.00
2022-12-19T08:51:33.961Z,36.00
2022-12-19T08:54:03.414Z,35.65
2022-12-19T08:56:37.223Z,46.05
2022-12-19T08:59:13.366Z,41.33
2022-12-19T09:01:44.632Z,35.70
2022-12-19T09:05:58.579Z,36.85
2022-12-19T09:07:07.105Z,43.08
2022-12-19T09:09:36.644Z,44.30
2022-12-19T09:12:07.342Z,36.38
2022-12-19T09:14:37.145Z,39.15
2022-12-19T09:17:07.053Z,44.47
2022-12-19T09:19:36.805Z,42.55
2022-12-19T09:22:09.533Z,40.15
2022-12-19T09:24:39.010Z,41.72
2022-12-19T09:27:08.514Z,50.30
2022-12-19T09:29:38.030Z,44.03
2022-12-19T09:32:08.249Z,40.63
2022-12-19T09:34:39.235Z,42.03
2022-12-19T09:37:16.760Z,34.97
2022-12-19T09:39:47.878Z,37.40
2022-12-19T09:42:42.413Z,38.28
2022-12-19T09:45:31.113Z,41.90
2022-12-19T09:48:02.468Z,38.25
2022-12-19T09:50:42.219Z,37.63
2022-12-19T09:53:20.155Z,41.83
2022-12-19T09:55:50.826Z,38.22
2022-12-19T09:58:30.288Z,46.67
2022-12-19T10:01:02.043Z,43.05
2022-12-19T10:03:33.586Z,45.40
2022-12-19T10:07:09.486Z,40.05
2022-12-19T10:10:55.575Z,41.42
2022-12-19T10:12:45.483Z,39.75
2022-12-19T10:15:09.171Z,39.40
2022-12-19T10:18:01.012Z,38.25
2022-12-19T10:20:32.761Z,32.42
2022-12-19T10:23:20.556Z,34.33
2022-12-19T10:26:02.488Z,36.42
2022-12-19T10:28:43.809Z,36.78
2022-12-19T10:31:22.313Z,38.75
2022-12-19T10:33:58.321Z,38.55
2022-12-19T10:36:55.918Z,36.85
2022-12-19T10:39:26.631Z,35.15
2022-12-19T10:42:02.245Z,32.33
2022-12-19T10:44:33.120Z,36.85
2022-12-19T10:47:04.538Z,35.08
2022-12-19T10:49:34.221Z,44.03
2022-12-19T10:52:05.753Z,32.78
2022-12-19T10:54:43.931Z,40.50
2022-12-19T10:57:27.401Z,40.63
2022-12-19T10:59:58.606Z,38.72
2022-12-19T11:02:37.216Z,36.10
2022-12-19T11:05:09.706Z,39.80
2022-12-19T11:07:39.260Z,42.90
2022-12-19T11:11:53.013Z,41.35
2022-12-19T11:16:22.125Z,38.63
2022-12-19T11:21:56.600Z,40.83
2022-12-19T11:29:17.226Z,42.42
2022-12-19T11:29:19.780Z,46.80
2022-12-19T11:30:35.709Z,45.15
2022-12-19T11:30:59.415Z,42.78
2022-12-19T11:34:09.481Z,43.17
2022-12-19T11:36:45.691Z,40.78
2022-12-19T11:39:19.421Z,38.50
2022-12-19T11:41:52.368Z,41.03
2022-12-19T11:44:29.790Z,39.80
2022-12-19T11:47:08.151Z,38.78
2022-12-19T11:49:41.442Z,38.15
2022-12-19T11:53:02.212Z,37.40
2022-12-19T11:55:19.995Z,35.70
2022-12-19T11:57:49.940Z,36.57
2022-12-19T12:00:23.210Z,35.23
2022-12-19T12:03:14.725Z,37.27
2022-12-19T12:05:48.041Z,35.83
2022-12-19T12:10:01.003Z,43.13
2022-12-19T12:15:21.813Z,36.70
2022-12-19T12:29:29.167Z,40.20
2022-12-19T12:31:01.481Z,37.60
2022-12-19T12:31:12.696Z,37.97
2022-12-19T12:31:46.587Z,35.93
2022-12-19T12:31:50.630Z,35.53
2022-12-19T12:32:02.057Z,37.70
2022-12-19T12:35:31.721Z,36.87
2022-12-19T12:38:27.437Z,37.20
2022-12-19T12:41:07.743Z,39.70
2022-12-19T12:43:49.450Z,37.93
2022-12-19T12:46:22.644Z,35.90
2022-12-19T12:48:56.322Z,39.27
2022-12-19T12:51:27.749Z,37.13
2022-12-19T12:54:05.115Z,40.73
2022-12-19T12:56:35.029Z,41.10
2022-12-19T12:59:21.883Z,39.40
2022-12-19T13:01:56.546Z,39.97
2022-12-19T13:04:32.720Z,41.47
2022-12-19T13:07:23.530Z,39.93
2022-12-19T13:10:08.901Z,34.70
2022-12-19T13:13:09.416Z,36.20
2022-12-19T13:15:45.666Z,31.93
2022-12-19T13:18:42.129Z,36.93
2022-12-19T13:21:12.442Z,34.77
2022-12-19T13:23:51.409Z,30.07
2022-12-19T13:26:52.395Z,33.03
2022-12-19T13:29:33.690Z,35.83
2022-12-19T13:32:15.636Z,38.90
2022-12-19T13:35:03.997Z,33.20
2022-12-19T13:39:57.949Z,28.63
2022-12-19T13:40:40.319Z,40.53
2022-12-19T13:43:30.641Z,43.87
2022-12-19T13:46:02.181Z,31.40
2022-12-19T13:48:34.444Z,37.60
2022-12-19T13:51:08.362Z,35.40
2022-12-19T13:53:38.106Z,38.90
2022-12-19T13:56:08.853Z,35.03
2022-12-19T13:58:48.064Z,33.00
2022-12-19T14:01:21.465Z,52.90
2022-12-19T14:03:53.426Z,32.90
2022-12-19T14:06:25.657Z,35.67
2022-12-19T14:08:59.248Z,28.77
2022-12-19T14:13:38.738Z,34.23
2022-12-19T14:15:13.496Z,32.50
2022-12-19T14:17:43.554Z,30.70
2022-12-19T14:22:01.868Z,35.03
2022-12-19T14:23:10.821Z,36.83
2022-12-19T14:28:17.124Z,23.97
2022-12-19T14:28:40.422Z,37.33
2022-12-19T14:31:16.298Z,55.80
2022-12-19T14:34:10.949Z,40.17
2022-12-19T14:36:41.335Z,50.10
2022-12-19T14:39:23.497Z,39.17
2022-12-19T14:42:17.290Z,39.93
2022-12-19T14:52:08.150Z,33.10
2022-12-19T14:53:51.438Z,29.90
2022-12-19T14:54:04.860Z,44.30
2022-12-19T14:54:41.629Z,40.00
2022-12-19T14:56:40.608Z,38.37
2022-12-19T14:59:07.373Z,32.87
2022-12-19T15:01:37.865Z,43.27
2022-12-19T15:04:48.235Z,27.80
2022-12-19T15:07:12.397Z,42.77
2022-12-19T15:10:57.940Z,41.07
2022-12-19T15:14:46.786Z,51.20
2022-12-19T15:15:56.477Z,42.27
2022-12-19T15:18:30.830Z,39.70
2022-12-19T15:21:04.371Z,49.77
2022-12-19T15:23:34.460Z,45.80
2022-12-19T15:26:07.437Z,47.00
2022-12-19T15:28:41.675Z,43.33
2022-12-19T15:31:16.882Z,39.17
2022-12-19T15:34:07.154Z,41.60
2022-12-19T15:36:38.375Z,47.53
2022-12-19T15:39:07.873Z,42.10
2022-12-19T15:41:37.858Z,17.43
2022-12-19T15:44:10.338Z,46.60
2022-12-19T15:46:44.733Z,42.50
2022-12-19T15:49:18.839Z,29.90
2022-12-19T15:51:51.539Z,43.20
2022-12-19T15:54:47.773Z,39.70
2022-12-19T15:57:21.585Z,37.80
2022-12-19T15:59:51.257Z,30.10
2022-12-19T16:02:23.217Z,44.03
2022-12-19T16:04:58.343Z,41.87
2022-12-19T16:07:35.441Z,43.47
2022-12-19T16:10:05.023Z,41.70
2022-12-19T16:12:37.138Z,41.73
2022-12-19T16:15:07.252Z,41.50
2022-12-19T16:17:36.770Z,33.73
2022-12-19T16:20:06.510Z,40.57
2022-12-19T16:22:38.882Z,37.40
2022-12-19T16:25:08.939Z,45.37
2022-12-19T16:27:38.539Z,44.23
2022-12-19T16:30:19.587Z,35.53
2022-12-19T16:32:50.645Z,49.67
2022-12-19T16:35:34.584Z,47.70
2022-12-19T16:38:14.517Z,49.33
2022-12-19T16:40:44.276Z,41.37
2022-12-19T16:43:17.947Z,43.07
2022-12-19T16:45:47.662Z,49.90
2022-12-19T16:48:21.502Z,46.43
2022-12-19T16:50:51.311Z,47.13
2022-12-19T16:53:23.394Z,42.30
2022-12-19T16:55:53.631Z,42.13
2022-12-19T16:58:24.531Z,52.37
2022-12-19T17:00:56.785Z,35.03
2022-12-19T17:03:31.342Z,47.00
2022-12-19T17:06:00.975Z,37.27
2022-12-19T17:08:33.040Z,38.57
2022-12-19T17:11:02.861Z,36.97
2022-12-19T17:13:32.363Z,41.77
2022-12-19T17:16:02.081Z,40.17
2022-12-19T17:18:34.289Z,24.67
2022-12-19T17:21:04.793Z,28.53
2022-12-19T17:23:36.915Z,39.40
2022-12-19T17:26:06.405Z,40.13
2022-12-19T17:28:35.937Z,30.40
2022-12-19T17:31:07.680Z,32.47
2022-12-19T17:33:39.463Z,35.27
2022-12-19T17:36:12.451Z,32.90
2022-12-19T17:38:44.676Z,24.00
2022-12-19T17:41:17.359Z,35.70
2022-12-19T17:43:47.033Z,28.90
2022-12-19T17:46:20.367Z,29.87
2022-12-19T17:48:51.284Z,17.63
2022-12-19T17:51:21.726Z,22.47
2022-12-19T17:53:53.932Z,16.57
2022-12-19T17:56:23.762Z,21.10
2022-12-19T17:58:53.282Z,14.87
2022-12-19T18:01:24.499Z,25.83
2022-12-19T18:03:56.268Z,23.37
2022-12-19T18:06:25.861Z,24.00
2022-12-19T18:08:57.950Z,28.43
2022-12-19T18:11:28.799Z,23.00
2022-12-19T18:13:58.491Z,23.03
2022-12-19T18:16:30.963Z,31.63
2022-12-19T18:19:00.788Z,30.03
2022-12-19T18:21:30.230Z,27.27
2022-12-19T18:24:02.351Z,29.23
2022-12-19T18:26:31.894Z,30.03
2022-12-19T18:29:01.315Z,37.80
2022-12-19T18:31:30.963Z,32.17
2022-12-19T18:34:07.298Z,28.77
2022-12-19T18:36:41.699Z,20.90
2022-12-19T18:39:21.491Z,31.07
2022-12-19T18:41:51.406Z,22.97
2022-12-19T18:44:22.606Z,25.50
2022-12-19T18:46:52.827Z,17.53
2022-12-19T18:49:22.943Z,27.97
2022-12-19T18:51:53.384Z,23.40
2022-12-19T18:54:25.574Z,15.27
2022-12-19T18:56:57.122Z,23.70
2022-12-19T18:59:26.683Z,29.63
2022-12-19T19:01:57.378Z,26.80
2022-12-19T19:04:26.852Z,18.70
2022-12-19T19:06:56.413Z,22.70
2022-12-19T19:09:28.592Z,26.13
2022-12-19T19:11:58.026Z,16.00
2022-12-19T19:14:27.582Z,24.83
2022-12-19T19:16:57.218Z,20.13
2022-12-19T19:19:26.739Z,26.33
2022-12-19T19:21:56.227Z,23.70
2022-12-19T19:24:28.252Z,25.47
2022-12-19T19:26:57.787Z,23.93
2022-12-19T19:29:27.241Z,20.30
2022-12-19T19:31:56.846Z,22.17
2022-12-19T19:34:29.873Z,12.23
2022-12-19T19:37:02.238Z,25.37
2022-12-19T19:39:36.015Z,22.40
2022-12-19T19:42:05.463Z,27.30
2022-12-19T19:44:35.051Z,22.63
2022-12-19T19:47:04.621Z,25.33
2022-12-19T19:49:34.054Z,23.87
2022-12-19T19:52:03.677Z,20.40
2022-12-19T19:54:37.535Z,24.43
2022-12-19T19:57:08.280Z,24.17
2022-12-19T19:59:37.795Z,27.93
2022-12-19T20:02:08.566Z,22.27
2022-12-19T20:04:39.176Z,23.13
2022-12-19T20:07:08.790Z,27.30
2022-12-19T20:09:40.883Z,22.00
2022-12-19T20:12:10.424Z,25.40
2022-12-19T20:14:42.668Z,12.67
2022-12-19T20:17:12.142Z,21.37
2022-12-19T20:19:42.136Z,21.77
2022-12-19T20:22:11.626Z,20.30
2022-12-19T20:24:43.780Z,22.80
2022-12-19T20:27:13.809Z,21.53
2022-12-19T20:29:43.597Z,19.30
2022-12-19T20:32:14.783Z,20.60
2022-12-19T20:34:45.286Z,19.60
2022-12-19T20:37:15.173Z,18.37
2022-12-19T20:39:47.559Z,22.20
2022-12-19T20:42:16.959Z,14.70
2022-12-19T20:44:46.433Z,12.57
2022-12-19T20:47:16.315Z,18.30
2022-12-19T20:49:45.821Z,19.57
2022-12-19T20:52:15.653Z,13.70
2022-12-19T20:54:47.823Z,16.17
2022-12-19T20:57:17.717Z,17.37
2022-12-19T20:59:47.231Z,18.53
2022-12-19T21:02:16.734Z,14.70
2022-12-19T21:04:46.530Z,19.60
2022-12-19T21:07:16.060Z,18.17
2022-12-19T21:09:50.168Z,15.83
2022-12-19T21:12:19.700Z,17.30
2022-12-19T21:14:49.239Z,14.30
2022-12-19T21:17:18.711Z,21.30
2022-12-19T21:19:48.339Z,16.73
2022-12-19T21:22:19.151Z,18.37
2022-12-19T21:24:51.805Z,13.93
2022-12-19T21:27:21.367Z,11.20
2022-12-19T21:29:50.862Z,18.33
2022-12-19T21:32:20.676Z,16.07
2022-12-19T21:34:50.214Z,18.20
2022-12-19T21:37:19.941Z,14.97
2022-12-19T21:39:52.138Z,21.13
2022-12-19T21:42:21.507Z,17.40
2022-12-19T21:44:50.971Z,19.13
2022-12-19T21:47:20.461Z,22.33
2022-12-19T21:49:50.009Z,23.70
2022-12-19T21:52:19.659Z,27.17
2022-12-19T21:54:52.016Z,30.60
2022-12-19T21:57:21.503Z,13.93
2022-12-19T21:59:51.174Z,21.23
2022-12-19T22:02:20.733Z,18.50
2022-12-19T22:04:51.043Z,17.70
2022-12-19T22:07:20.538Z,14.80
2022-12-19T22:09:52.609Z,16.60
2022-12-19T22:12:22.075Z,24.20
2022-12-19T22:14:51.803Z,20.00
2022-12-19T22:17:21.301Z,17.03
2022-12-19T22:19:50.767Z,17.27
2022-12-19T22:22:20.276Z,19.03
2022-12-19T22:24:52.439Z,18.53
2022-12-19T22:27:21.949Z,19.40
2022-12-19T22:29:51.521Z,16.17
2022-12-19T22:32:21.167Z,19.73
2022-12-19T22:34:51.773Z,17.07
2022-12-19T22:37:21.525Z,21.00
2022-12-19T22:39:53.712Z,15.83
2022-12-19T22:42:23.263Z,16.83
2022-12-19T22:44:52.693Z,21.80
2022-12-19T22:47:22.238Z,20.53
2022-12-19T22:49:53.252Z,18.10
2022-12-19T22:52:23.646Z,11.83
2022-12-19T22:54:55.732Z,17.70
2022-12-19T22:57:25.255Z,15.60
2022-12-19T22:59:54.710Z,15.40
2022-12-19T23:02:24.444Z,20.43
2022-12-19T23:04:54.058Z,11.43
2022-12-19T23:07:23.584Z,13.63
2022-12-19T23:09:55.674Z,20.73
2022-12-19T23:12:25.284Z,15.90
2022-12-19T23:14:54.685Z,15.50
2022-12-19T23:17:24.203Z,21.70
2022-12-19T23:19:53.717Z,17.80
2022-12-19T23:22:23.198Z,17.00
2022-12-19T23:24:55.550Z,20.93
2022-12-19T23:27:25.157Z,18.33
2022-12-19T23:29:54.665Z,15.83
2022-12-19T23:32:24.339Z,17.10
2022-12-19T23:34:53.911Z,19.37
2022-12-19T23:37:23.388Z,15.73
2022-12-19T23:39:55.460Z,16.90
2022-12-19T23:42:25.013Z,10.20
2022-12-19T23:44:54.512Z,21.23
2022-12-19T23:47:23.939Z,13.13
2022-12-19T23:49:54.533Z,18.07
2022-12-19T23:52:23.977Z,17.10
2022-12-19T23:54:55.986Z,16.27
2022-12-19T23:57:25.576Z,14.03
2022-12-19T23:59:55.039Z,13.23
